createdAt,value
2022-09-12T00:01:39.265Z,17.55
2022-09-12T00:08:41.049Z,17.47
2022-09-12T00:15:43.471Z,17.42
2022-09-12T00:22:45.056Z,17.33
2022-09-12T00:29:46.624Z,17.25
2022-09-12T00:36:48.186Z,17.16
2022-09-12T00:43:54.438Z,17.09
2022-09-12T00:50:55.981Z,17.00
2022-09-12T00:58:00.064Z,16.96
2022-09-12T01:05:01.620Z,16.91
2022-09-12T01:12:03.720Z,16.85
2022-09-12T01:19:08.182Z,16.78
2022-09-12T01:26:43.108Z,16.73
2022-09-12T01:33:50.668Z,16.69
2022-09-12T01:41:05.576Z,16.66
2022-09-12T01:48:20.265Z,16.61
2022-09-12T01:55:34.934Z,16.53
2022-09-12T02:03:10.299Z,16.50
2022-09-12T02:10:17.340Z,16.47
2022-09-12T02:17:21.115Z,16.40
2022-09-12T02:24:24.475Z,16.35
2022-09-12T02:31:31.342Z,16.32
2022-09-12T02:38:38.061Z,16.27
2022-09-12T02:45:39.731Z,16.26
2022-09-12T02:52:41.448Z,16.25
2022-09-12T02:59:42.993Z,16.20
2022-09-12T03:06:55.430Z,16.14
2022-09-12T03:14:16.821Z,16.09
2022-09-12T03:21:53.674Z,16.04
2022-09-12T03:28:55.223Z,16.01
2022-09-12T03:35:56.775Z,15.97
2022-09-12T03:42:58.410Z,15.91
2022-09-12T03:50:00.022Z,15.89
2022-09-12T03:57:01.590Z,15.83
2022-09-12T04:04:03.227Z,15.80
2022-09-12T04:11:05.778Z,15.78
2022-09-12T04:18:07.340Z,15.75
2022-09-12T04:25:09.538Z,15.74
2022-09-12T04:32:11.123Z,15.69
2022-09-12T04:39:12.753Z,15.67
2022-09-12T04:46:16.641Z,15.65
2022-09-12T04:53:18.183Z,15.63
2022-09-12T05:00:20.513Z,15.63
2022-09-12T05:07:22.065Z,15.63
2022-09-12T05:14:23.715Z,15.66
2022-09-12T05:21:25.415Z,15.69
2022-09-12T05:28:31.742Z,15.68
2022-09-12T05:35:33.964Z,15.73
2022-09-12T05:42:36.774Z,15.79
2022-09-12T05:49:38.438Z,15.88
2022-09-12T05:56:41.546Z,15.97
2022-09-12T06:03:44.644Z,16.06
2022-09-12T06:10:46.214Z,16.17
2022-09-12T06:17:51.378Z,16.24
2022-09-12T06:24:57.770Z,16.36
2022-09-12T06:31:59.573Z,16.51
2022-09-12T06:39:05.423Z,16.61
2022-09-12T06:46:07.526Z,16.77
2022-09-12T06:53:09.676Z,17.06
2022-09-12T07:00:11.931Z,17.38
2022-09-12T07:07:14.613Z,17.99
2022-09-12T07:14:19.081Z,18.07
2022-09-12T07:21:20.705Z,18.40
2022-09-12T07:28:22.358Z,18.78
2022-09-12T07:35:23.954Z,19.40
2022-09-12T07:42:25.578Z,19.72
2022-09-12T07:49:27.163Z,20.26
2022-09-12T07:56:32.733Z,20.46
2022-09-12T08:03:36.680Z,20.95
2022-09-12T08:10:38.260Z,21.17
2022-09-12T08:17:41.211Z,21.53
2022-09-12T08:24:43.737Z,21.86
2022-09-12T08:31:46.314Z,21.97
2022-09-12T08:38:49.304Z,22.75
2022-09-12T08:45:54.597Z,22.89
2022-09-12T08:53:06.337Z,22.79
2022-09-12T09:00:13.099Z,23.60
2022-09-12T09:07:52.285Z,23.90
2022-09-12T09:15:02.776Z,23.37
2022-09-12T09:22:11.990Z,23.30
2022-09-12T09:29:14.996Z,24.24
2022-09-12T09:36:22.451Z,24.26
2022-09-12T09:43:25.390Z,23.78
2022-09-12T09:50:27.326Z,23.27
2022-09-12T09:57:34.757Z,23.74
2022-09-12T10:04:41.385Z,24.24
2022-09-12T10:11:45.902Z,25.39
2022-09-12T10:18:47.932Z,26.61
2022-09-12T10:25:53.802Z,27.72
2022-09-12T10:33:06.074Z,28.91
2022-09-12T10:40:20.309Z,28.67
2022-09-12T10:47:23.943Z,27.66
2022-09-12T10:54:26.766Z,26.83
2022-09-12T11:02:05.460Z,26.95
2022-09-12T11:09:21.045Z,27.46
2022-09-12T11:16:31.727Z,28.43
2022-09-12T11:24:10.895Z,29.52
2022-09-12T11:31:35.512Z,27.88
2022-09-12T11:38:48.121Z,26.99
2022-09-12T11:45:49.776Z,27.58
2022-09-12T11:52:51.397Z,28.75
2022-09-12T12:00:12.366Z,27.72
2022-09-12T12:07:15.304Z,28.91
2022-09-12T12:14:42.428Z,29.64
2022-09-12T12:21:45.279Z,30.25
2022-09-12T12:28:50.604Z,30.05
2022-09-12T12:36:03.273Z,30.06
2022-09-12T12:43:05.309Z,30.22
2022-09-12T12:50:26.068Z,30.14
2022-09-12T12:57:31.954Z,29.90
2022-09-12T13:04:33.920Z,29.50
2022-09-12T13:11:37.137Z,29.37
2022-09-12T13:18:47.083Z,29.39
2022-09-12T13:25:53.116Z,28.94
2022-09-12T13:32:57.501Z,28.51
2022-09-12T13:40:24.107Z,27.95
2022-09-12T13:47:28.531Z,27.33
2022-09-12T13:54:30.172Z,27.11
2022-09-12T14:01:39.718Z,26.86
2022-09-12T14:08:41.515Z,26.73
2022-09-12T14:15:48.151Z,26.70
2022-09-12T14:22:52.881Z,26.72
2022-09-12T14:30:25.104Z,26.40
2022-09-12T14:37:26.725Z,26.08
2022-09-12T14:44:28.422Z,25.93
2022-09-12T14:51:40.814Z,25.78
2022-09-12T14:58:42.475Z,25.60
2022-09-12T15:05:49.856Z,25.31
2022-09-12T15:13:10.662Z,25.13
2022-09-12T15:20:12.653Z,24.93
2022-09-12T15:27:14.230Z,24.75
2022-09-12T15:34:15.782Z,24.70
2022-09-12T15:41:21.178Z,24.59
2022-09-12T15:48:22.715Z,24.53
2022-09-12T15:55:29.379Z,24.47
2022-09-12T16:02:31.014Z,24.29
2022-09-12T16:09:32.697Z,24.17
2022-09-12T16:16:34.866Z,24.02
2022-09-12T16:23:36.620Z,23.96
2022-09-12T16:30:38.231Z,23.85
2022-09-12T16:37:39.847Z,23.79
2022-09-12T16:44:41.736Z,23.72
2022-09-12T16:51:47.344Z,23.61
2022-09-12T16:58:49.084Z,23.54
2022-09-12T17:06:02.466Z,23.41
2022-09-12T17:13:04.283Z,23.29
2022-09-12T17:20:06.052Z,23.20
2022-09-12T17:27:07.823Z,23.05
2022-09-12T17:34:09.463Z,22.96
2022-09-12T17:41:18.488Z,22.78
2022-09-12T17:48:20.394Z,22.65
2022-09-12T17:55:21.933Z,22.53
2022-09-12T18:02:23.630Z,22.40
2022-09-12T18:09:25.366Z,22.27
2022-09-12T18:16:28.135Z,22.12
2022-09-12T18:23:29.728Z,22.01
2022-09-12T18:30:31.285Z,21.92
2022-09-12T18:37:33.087Z,21.80
2022-09-12T18:44:34.724Z,21.71
2022-09-12T18:51:36.542Z,21.64
2022-09-12T18:58:38.976Z,21.59
2022-09-12T19:05:40.546Z,21.49
2022-09-12T19:12:42.103Z,21.38
2022-09-12T19:19:43.812Z,21.26
2022-09-12T19:26:45.379Z,21.18
2022-09-12T19:33:47.148Z,21.06
2022-09-12T19:40:58.788Z,20.93
2022-09-12T19:48:00.310Z,20.79
2022-09-12T19:55:01.866Z,20.67
2022-09-12T20:02:03.892Z,20.55
2022-09-12T20:09:05.650Z,20.47
2022-09-12T20:16:10.991Z,20.38
2022-09-12T20:23:12.538Z,20.27
2022-09-12T20:30:14.727Z,20.19
2022-09-12T20:37:16.431Z,20.12
2022-09-12T20:44:17.998Z,20.04
2022-09-12T20:51:20.248Z,19.95
2022-09-12T20:58:22.200Z,19.86
2022-09-12T21:05:23.776Z,19.81
2022-09-12T21:12:27.547Z,19.76
2022-09-12T21:19:29.120Z,19.66
2022-09-12T21:26:30.841Z,19.58
2022-09-12T21:33:32.387Z,19.50
2022-09-12T21:40:33.966Z,19.46
2022-09-12T21:47:35.747Z,19.39
2022-09-12T21:54:37.304Z,19.32
2022-09-12T22:01:38.914Z,19.29
2022-09-12T22:08:40.626Z,19.25
2022-09-12T22:15:50.246Z,19.20
2022-09-12T22:23:10.423Z,19.14
2022-09-12T22:30:12.322Z,19.02
2022-09-12T22:37:14.053Z,18.95
2022-09-12T22:44:17.653Z,18.86
2022-09-12T22:51:19.239Z,18.84
2022-09-12T22:58:21.076Z,18.78
2022-09-12T23:05:22.691Z,18.69
2022-09-12T23:12:24.292Z,18.62
2022-09-12T23:19:25.907Z,18.59
2022-09-12T23:26:30.315Z,18.56
2022-09-12T23:33:31.997Z,18.49
2022-09-12T23:40:33.681Z,18.41
2022-09-12T23:47:35.225Z,18.36
2022-09-12T23:54:36.948Z,18.29
